sensor_id;sensor_type;location;lat;lon;timestamp;P1;durP1;ratioP1;P2;durP2;ratioP2
357;SDS011;167;47.558;7.602;2022-12-15T00:02:01;3.27;;;3.07;;
357;SDS011;167;47.558;7.602;2022-12-15T00:04:46;3.20;;;3.00;;
357;SDS011;167;47.558;7.602;2022-12-15T00:07:31;4.33;;;4.03;;
357;SDS011;167;47.558;7.602;2022-12-15T00:10:16;3.20;;;3.00;;
357;SDS011;167;47.558;7.602;2022-12-15T00:13:00;2.73;;;2.57;;
357;SDS011;167;47.558;7.602;2022-12-15T00:15:45;3.60;;;3.30;;
357;SDS011;167;47.558;7.602;2022-12-15T00:18:30;4.23;;;3.90;;
357;SDS011;167;47.558;7.602;2022-12-15T00:21:14;3.07;;;2.87;;
357;SDS011;167;47.558;7.602;2022-12-15T00:23:59;3.87;;;3.60;;
357;SDS011;167;47.558;7.602;2022-12-15T00:26:43;4.00;;;3.60;;
357;SDS011;167;47.558;7.602;2022-12-15T00:35:35;3.27;;;3.00;;
357;SDS011;167;47.558;7.602;2022-12-15T00:38:19;2.93;;;2.73;;
357;SDS011;167;47.558;7.602;2022-12-15T00:41:04;3.00;;;2.80;;
357;SDS011;167;47.558;7.602;2022-12-15T00:43:30;3.90;;;3.63;;
357;SDS011;167;47.558;7.602;2022-12-15T00:45:57;3.07;;;2.87;;
357;SDS011;167;47.558;7.602;2022-12-15T00:48:41;2.63;;;2.53;;
357;SDS011;167;47.558;7.602;2022-12-15T00:51:07;3.60;;;3.40;;
357;SDS011;167;47.558;7.602;2022-12-15T00:53:33;2.53;;;2.33;;
357;SDS011;167;47.558;7.602;2022-12-15T00:56:18;3.23;;;3.03;;
357;SDS011;167;47.558;7.602;2022-12-15T00:59:02;2.60;;;2.47;;
357;SDS011;167;47.558;7.602;2022-12-15T01:01:47;3.63;;;3.43;;
357;SDS011;167;47.558;7.602;2022-12-15T01:04:32;3.27;;;3.07;;
357;SDS011;167;47.558;7.602;2022-12-15T01:07:16;3.00;;;2.80;;
357;SDS011;167;47.558;7.602;2022-12-15T01:10:01;3.40;;;3.30;;
357;SDS011;167;47.558;7.602;2022-12-15T01:12:45;3.13;;;2.93;;
357;SDS011;167;47.558;7.602;2022-12-15T01:15:30;3.60;;;3.40;;
357;SDS011;167;47.558;7.602;2022-12-15T01:18:15;3.40;;;3.20;;
357;SDS011;167;47.558;7.602;2022-12-15T01:21:01;3.67;;;3.47;;
357;SDS011;167;47.558;7.602;2022-12-15T01:23:27;3.60;;;3.40;;
357;SDS011;167;47.558;7.602;2022-12-15T01:25:53;3.20;;;3.00;;
357;SDS011;167;47.558;7.602;2022-12-15T01:28:20;3.13;;;2.93;;
357;SDS011;167;47.558;7.602;2022-12-15T01:30:46;3.60;;;3.40;;
357;SDS011;167;47.558;7.602;2022-12-15T01:33:12;4.00;;;3.70;;
357;SDS011;167;47.558;7.602;2022-12-15T01:35:38;3.57;;;3.37;;
357;SDS011;167;47.558;7.602;2022-12-15T01:38:05;3.30;;;3.10;;
357;SDS011;167;47.558;7.602;2022-12-15T01:40:31;3.57;;;3.37;;
357;SDS011;167;47.558;7.602;2022-12-15T01:43:11;2.57;;;2.47;;
357;SDS011;167;47.558;7.602;2022-12-15T01:48:07;3.20;;;3.00;;
357;SDS011;167;47.558;7.602;2022-12-15T01:50:36;4.10;;;3.80;;
357;SDS011;167;47.558;7.602;2022-12-15T01:53:04;3.67;;;3.47;;
357;SDS011;167;47.558;7.602;2022-12-15T01:55:30;3.00;;;2.80;;
357;SDS011;167;47.558;7.602;2022-12-15T01:57:58;3.30;;;3.10;;
357;SDS011;167;47.558;7.602;2022-12-15T02:00:25;3.30;;;3.10;;
357;SDS011;167;47.558;7.602;2022-12-15T02:02:52;3.50;;;3.30;;
357;SDS011;167;47.558;7.602;2022-12-15T02:05:18;3.60;;;3.40;;
357;SDS011;167;47.558;7.602;2022-12-15T02:07:45;2.90;;;2.70;;
357;SDS011;167;47.558;7.602;2022-12-15T02:10:11;3.53;;;3.07;;
357;SDS011;167;47.558;7.602;2022-12-15T02:12:52;2.97;;;2.77;;
357;SDS011;167;47.558;7.602;2022-12-15T02:18:10;3.73;;;3.53;;
357;SDS011;167;47.558;7.602;2022-12-15T02:31:26;4.07;;;3.77;;
357;SDS011;167;47.558;7.602;2022-12-15T02:36:38;3.40;;;3.13;;
357;SDS011;167;47.558;7.602;2022-12-15T02:39:05;3.80;;;3.50;;
357;SDS011;167;47.558;7.602;2022-12-15T02:43:57;3.00;;;2.80;;
357;SDS011;167;47.558;7.602;2022-12-15T02:46:26;3.87;;;3.60;;
357;SDS011;167;47.558;7.602;2022-12-15T02:49:13;3.50;;;3.30;;
357;SDS011;167;47.558;7.602;2022-12-15T02:56:45;2.60;;;2.43;;
357;SDS011;167;47.558;7.602;2022-12-15T03:02:01;3.60;;;3.30;;
357;SDS011;167;47.558;7.602;2022-12-15T03:04:29;3.43;;;3.20;;
357;SDS011;167;47.558;7.602;2022-12-15T03:06:59;2.77;;;2.57;;
357;SDS011;167;47.558;7.602;2022-12-15T03:09:27;3.40;;;3.20;;
357;SDS011;167;47.558;7.602;2022-12-15T03:11:53;3.40;;;3.20;;
357;SDS011;167;47.558;7.602;2022-12-15T03:14:19;2.83;;;2.63;;
357;SDS011;167;47.558;7.602;2022-12-15T03:16:45;3.77;;;3.47;;
357;SDS011;167;47.558;7.602;2022-12-15T03:19:11;2.50;;;2.40;;
357;SDS011;167;47.558;7.602;2022-12-15T03:21:37;2.83;;;2.67;;
357;SDS011;167;47.558;7.602;2022-12-15T03:24:03;2.20;;;2.10;;
357;SDS011;167;47.558;7.602;2022-12-15T03:26:29;2.53;;;2.33;;
357;SDS011;167;47.558;7.602;2022-12-15T03:28:55;2.37;;;2.27;;
357;SDS011;167;47.558;7.602;2022-12-15T03:31:21;2.90;;;2.80;;
357;SDS011;167;47.558;7.602;2022-12-15T03:33:47;2.53;;;2.40;;
357;SDS011;167;47.558;7.602;2022-12-15T03:36:13;2.37;;;2.27;;
357;SDS011;167;47.558;7.602;2022-12-15T03:38:39;2.57;;;2.40;;
357;SDS011;167;47.558;7.602;2022-12-15T03:41:05;2.47;;;2.33;;
357;SDS011;167;47.558;7.602;2022-12-15T03:43:31;2.40;;;2.23;;
357;SDS011;167;47.558;7.602;2022-12-15T03:45:57;4.17;;;3.87;;
357;SDS011;167;47.558;7.602;2022-12-15T03:48:23;3.23;;;3.00;;
357;SDS011;167;47.558;7.602;2022-12-15T03:50:49;2.30;;;2.20;;
357;SDS011;167;47.558;7.602;2022-12-15T03:53:15;3.13;;;2.93;;
357;SDS011;167;47.558;7.602;2022-12-15T03:55:41;2.87;;;2.67;;
357;SDS011;167;47.558;7.602;2022-12-15T03:58:07;2.57;;;2.37;;
357;SDS011;167;47.558;7.602;2022-12-15T04:00:33;3.40;;;3.20;;
357;SDS011;167;47.558;7.602;2022-12-15T04:02:59;2.47;;;2.27;;
357;SDS011;167;47.558;7.602;2022-12-15T04:05:26;1.83;;;1.73;;
357;SDS011;167;47.558;7.602;2022-12-15T04:07:53;2.10;;;2.00;;
357;SDS011;167;47.558;7.602;2022-12-15T04:10:19;2.10;;;2.00;;
357;SDS011;167;47.558;7.602;2022-12-15T04:12:45;2.33;;;2.23;;
357;SDS011;167;47.558;7.602;2022-12-15T04:15:11;2.87;;;2.63;;
357;SDS011;167;47.558;7.602;2022-12-15T04:17:37;1.97;;;1.87;;
357;SDS011;167;47.558;7.602;2022-12-15T04:20:04;2.03;;;1.93;;
357;SDS011;167;47.558;7.602;2022-12-15T04:22:37;2.67;;;2.47;;
357;SDS011;167;47.558;7.602;2022-12-15T04:25:04;2.60;;;2.50;;
357;SDS011;167;47.558;7.602;2022-12-15T04:27:48;2.40;;;2.30;;
357;SDS011;167;47.558;7.602;2022-12-15T04:30:34;2.70;;;2.50;;
357;SDS011;167;47.558;7.602;2022-12-15T04:33:19;2.90;;;2.73;;
357;SDS011;167;47.558;7.602;2022-12-15T04:36:06;2.63;;;2.53;;
357;SDS011;167;47.558;7.602;2022-12-15T04:38:51;3.10;;;2.90;;
357;SDS011;167;47.558;7.602;2022-12-15T04:41:36;4.13;;;3.83;;
357;SDS011;167;47.558;7.602;2022-12-15T04:44:20;3.93;;;3.63;;
357;SDS011;167;47.558;7.602;2022-12-15T04:47:05;5.50;;;5.10;;
357;SDS011;167;47.558;7.602;2022-12-15T04:49:49;4.83;;;4.43;;
357;SDS011;167;47.558;7.602;2022-12-15T04:52:34;4.63;;;4.20;;
357;SDS011;167;47.558;7.602;2022-12-15T04:55:18;6.03;;;5.57;;
357;SDS011;167;47.558;7.602;2022-12-15T04:58:04;5.20;;;4.80;;
357;SDS011;167;47.558;7.602;2022-12-15T05:00:49;7.07;;;5.33;;
357;SDS011;167;47.558;7.602;2022-12-15T05:03:34;5.73;;;5.10;;
357;SDS011;167;47.558;7.602;2022-12-15T05:06:18;6.03;;;5.50;;
357;SDS011;167;47.558;7.602;2022-12-15T05:09:03;6.77;;;6.17;;
357;SDS011;167;47.558;7.602;2022-12-15T05:11:47;6.27;;;5.77;;
357;SDS011;167;47.558;7.602;2022-12-15T05:14:32;6.80;;;6.20;;
357;SDS011;167;47.558;7.602;2022-12-15T05:17:16;7.50;;;6.70;;
357;SDS011;167;47.558;7.602;2022-12-15T05:20:01;6.67;;;6.07;;
357;SDS011;167;47.558;7.602;2022-12-15T05:22:45;6.90;;;6.27;;
357;SDS011;167;47.558;7.602;2022-12-15T05:25:35;6.83;;;6.23;;
357;SDS011;167;47.558;7.602;2022-12-15T05:28:20;6.37;;;5.80;;
357;SDS011;167;47.558;7.602;2022-12-15T05:31:05;6.43;;;5.73;;
357;SDS011;167;47.558;7.602;2022-12-15T05:33:50;4.87;;;4.47;;
357;SDS011;167;47.558;7.602;2022-12-15T05:36:16;6.37;;;5.80;;
357;SDS011;167;47.558;7.602;2022-12-15T05:38:42;6.60;;;6.00;;
357;SDS011;167;47.558;7.602;2022-12-15T05:41:08;6.57;;;5.97;;
357;SDS011;167;47.558;7.602;2022-12-15T05:43:34;6.70;;;6.10;;
357;SDS011;167;47.558;7.602;2022-12-15T05:46:03;6.30;;;5.73;;
357;SDS011;167;47.558;7.602;2022-12-15T05:48:29;5.50;;;5.00;;
357;SDS011;167;47.558;7.602;2022-12-15T05:50:55;6.27;;;5.77;;
357;SDS011;167;47.558;7.602;2022-12-15T05:53:21;5.83;;;5.10;;
357;SDS011;167;47.558;7.602;2022-12-15T05:55:47;5.93;;;5.33;;
357;SDS011;167;47.558;7.602;2022-12-15T05:58:13;5.80;;;5.20;;
357;SDS011;167;47.558;7.602;2022-12-15T06:00:39;5.10;;;4.63;;
357;SDS011;167;47.558;7.602;2022-12-15T06:03:05;4.83;;;4.43;;
357;SDS011;167;47.558;7.602;2022-12-15T06:05:31;6.60;;;6.00;;
357;SDS011;167;47.558;7.602;2022-12-15T06:07:58;7.30;;;6.70;;
357;SDS011;167;47.558;7.602;2022-12-15T06:10:24;5.73;;;5.23;;
357;SDS011;167;47.558;7.602;2022-12-15T06:12:51;6.30;;;5.70;;
357;SDS011;167;47.558;7.602;2022-12-15T06:15:18;5.67;;;5.27;;
357;SDS011;167;47.558;7.602;2022-12-15T06:17:44;6.17;;;5.57;;
357;SDS011;167;47.558;7.602;2022-12-15T06:20:10;5.50;;;5.00;;
357;SDS011;167;47.558;7.602;2022-12-15T06:22:36;5.90;;;5.40;;
357;SDS011;167;47.558;7.602;2022-12-15T06:25:02;4.97;;;4.57;;
357;SDS011;167;47.558;7.602;2022-12-15T06:27:28;5.97;;;5.47;;
357;SDS011;167;47.558;7.602;2022-12-15T06:29:54;5.73;;;5.13;;
357;SDS011;167;47.558;7.602;2022-12-15T06:32:20;5.60;;;5.10;;
357;SDS011;167;47.558;7.602;2022-12-15T06:34:47;7.00;;;6.50;;
357;SDS011;167;47.558;7.602;2022-12-15T06:37:13;7.07;;;6.43;;
357;SDS011;167;47.558;7.602;2022-12-15T06:39:39;6.40;;;5.90;;
357;SDS011;167;47.558;7.602;2022-12-15T06:42:05;6.50;;;5.90;;
357;SDS011;167;47.558;7.602;2022-12-15T06:44:31;6.47;;;5.87;;
357;SDS011;167;47.558;7.602;2022-12-15T06:46:57;7.70;;;6.60;;
357;SDS011;167;47.558;7.602;2022-12-15T06:49:23;6.37;;;5.77;;
357;SDS011;167;47.558;7.602;2022-12-15T06:51:49;6.70;;;6.10;;
357;SDS011;167;47.558;7.602;2022-12-15T06:54:15;8.20;;;7.40;;
357;SDS011;167;47.558;7.602;2022-12-15T06:56:41;8.47;;;7.67;;
357;SDS011;167;47.558;7.602;2022-12-15T06:59:08;6.70;;;6.10;;
357;SDS011;167;47.558;7.602;2022-12-15T07:01:35;7.10;;;6.40;;
357;SDS011;167;47.558;7.602;2022-12-15T07:04:01;7.17;;;6.53;;
357;SDS011;167;47.558;7.602;2022-12-15T07:06:35;7.47;;;6.67;;
357;SDS011;167;47.558;7.602;2022-12-15T07:09:01;8.40;;;6.90;;
357;SDS011;167;47.558;7.602;2022-12-15T07:11:28;7.30;;;6.27;;
357;SDS011;167;47.558;7.602;2022-12-15T07:13:54;7.30;;;6.60;;
357;SDS011;167;47.558;7.602;2022-12-15T07:16:20;8.20;;;7.50;;
357;SDS011;167;47.558;7.602;2022-12-15T07:18:47;6.63;;;6.03;;
357;SDS011;167;47.558;7.602;2022-12-15T07:21:13;7.73;;;7.03;;
357;SDS011;167;47.558;7.602;2022-12-15T07:23:39;7.27;;;6.40;;
357;SDS011;167;47.558;7.602;2022-12-15T07:26:06;7.33;;;6.63;;
357;SDS011;167;47.558;7.602;2022-12-15T07:28:33;7.53;;;6.80;;
357;SDS011;167;47.558;7.602;2022-12-15T07:31:00;7.87;;;7.10;;
357;SDS011;167;47.558;7.602;2022-12-15T07:33:26;7.10;;;6.40;;
357;SDS011;167;47.558;7.602;2022-12-15T07:35:52;8.80;;;7.90;;
357;SDS011;167;47.558;7.602;2022-12-15T07:38:18;8.77;;;7.97;;
357;SDS011;167;47.558;7.602;2022-12-15T07:40:44;7.10;;;6.50;;
357;SDS011;167;47.558;7.602;2022-12-15T07:43:10;8.70;;;7.80;;
357;SDS011;167;47.558;7.602;2022-12-15T07:45:36;8.40;;;7.60;;
357;SDS011;167;47.558;7.602;2022-12-15T07:48:02;7.47;;;6.77;;
357;SDS011;167;47.558;7.602;2022-12-15T07:50:28;8.03;;;7.33;;
357;SDS011;167;47.558;7.602;2022-12-15T07:52:54;9.17;;;7.90;;
357;SDS011;167;47.558;7.602;2022-12-15T07:55:21;8.57;;;7.67;;
357;SDS011;167;47.558;7.602;2022-12-15T07:57:47;8.83;;;7.80;;
357;SDS011;167;47.558;7.602;2022-12-15T08:00:13;9.87;;;8.87;;
357;SDS011;167;47.558;7.602;2022-12-15T08:02:40;8.50;;;7.70;;
357;SDS011;167;47.558;7.602;2022-12-15T08:05:07;10.93;;;9.40;;
357;SDS011;167;47.558;7.602;2022-12-15T08:07:33;9.03;;;8.23;;
357;SDS011;167;47.558;7.602;2022-12-15T08:09:59;8.67;;;7.77;;
357;SDS011;167;47.558;7.602;2022-12-15T08:12:28;8.87;;;7.97;;
357;SDS011;167;47.558;7.602;2022-12-15T08:14:55;12.30;;;9.43;;
357;SDS011;167;47.558;7.602;2022-12-15T08:17:21;10.33;;;9.37;;
357;SDS011;167;47.558;7.602;2022-12-15T08:19:47;7.83;;;7.03;;
357;SDS011;167;47.558;7.602;2022-12-15T08:22:13;9.90;;;8.90;;
357;SDS011;167;47.558;7.602;2022-12-15T08:24:39;12.23;;;10.10;;
357;SDS011;167;47.558;7.602;2022-12-15T08:27:06;14.83;;;8.53;;
357;SDS011;167;47.558;7.602;2022-12-15T08:29:32;9.87;;;8.47;;
357;SDS011;167;47.558;7.602;2022-12-15T08:31:58;8.50;;;7.70;;
357;SDS011;167;47.558;7.602;2022-12-15T08:34:24;9.80;;;8.87;;
357;SDS011;167;47.558;7.602;2022-12-15T08:36:50;10.50;;;9.40;;
357;SDS011;167;47.558;7.602;2022-12-15T08:39:16;10.30;;;9.20;;
357;SDS011;167;47.558;7.602;2022-12-15T08:41:42;11.97;;;10.43;;
357;SDS011;167;47.558;7.602;2022-12-15T08:44:08;11.17;;;10.13;;
357;SDS011;167;47.558;7.602;2022-12-15T08:46:35;13.50;;;11.10;;
357;SDS011;167;47.558;7.602;2022-12-15T08:49:01;12.73;;;9.20;;
357;SDS011;167;47.558;7.602;2022-12-15T08:51:28;12.23;;;10.97;;
357;SDS011;167;47.558;7.602;2022-12-15T08:53:55;11.73;;;10.50;;
357;SDS011;167;47.558;7.602;2022-12-15T08:56:21;12.23;;;10.60;;
357;SDS011;167;47.558;7.602;2022-12-15T08:58:48;14.03;;;10.63;;
357;SDS011;167;47.558;7.602;2022-12-15T09:01:15;12.27;;;10.20;;
357;SDS011;167;47.558;7.602;2022-12-15T09:03:41;11.97;;;10.37;;
357;SDS011;167;47.558;7.602;2022-12-15T09:06:11;11.13;;;10.03;;
357;SDS011;167;47.558;7.602;2022-12-15T09:08:38;11.67;;;9.90;;
357;SDS011;167;47.558;7.602;2022-12-15T09:11:04;10.97;;;9.60;;
357;SDS011;167;47.558;7.602;2022-12-15T09:13:30;12.87;;;11.13;;
357;SDS011;167;47.558;7.602;2022-12-15T09:15:57;11.63;;;10.47;;
357;SDS011;167;47.558;7.602;2022-12-15T09:18:23;12.50;;;11.20;;
357;SDS011;167;47.558;7.602;2022-12-15T09:20:49;12.97;;;11.63;;
357;SDS011;167;47.558;7.602;2022-12-15T09:23:15;18.17;;;14.50;;
357;SDS011;167;47.558;7.602;2022-12-15T09:25:41;11.67;;;9.80;;
357;SDS011;167;47.558;7.602;2022-12-15T09:28:08;10.93;;;9.77;;
357;SDS011;167;47.558;7.602;2022-12-15T09:30:34;16.50;;;11.73;;
357;SDS011;167;47.558;7.602;2022-12-15T09:33:00;13.50;;;11.90;;
357;SDS011;167;47.558;7.602;2022-12-15T09:35:26;14.37;;;11.77;;
357;SDS011;167;47.558;7.602;2022-12-15T09:37:52;14.97;;;12.10;;
357;SDS011;167;47.558;7.602;2022-12-15T09:40:18;18.50;;;13.30;;
357;SDS011;167;47.558;7.602;2022-12-15T09:42:45;15.53;;;12.30;;
357;SDS011;167;47.558;7.602;2022-12-15T09:45:17;11.53;;;10.50;;
357;SDS011;167;47.558;7.602;2022-12-15T09:50:22;13.90;;;12.20;;
357;SDS011;167;47.558;7.602;2022-12-15T09:52:51;11.80;;;10.60;;
357;SDS011;167;47.558;7.602;2022-12-15T09:55:22;12.40;;;10.70;;
357;SDS011;167;47.558;7.602;2022-12-15T10:00:19;13.00;;;11.70;;
357;SDS011;167;47.558;7.602;2022-12-15T10:07:59;12.23;;;10.93;;
357;SDS011;167;47.558;7.602;2022-12-15T10:10:29;14.10;;;12.07;;
357;SDS011;167;47.558;7.602;2022-12-15T10:12:58;12.93;;;11.53;;
357;SDS011;167;47.558;7.602;2022-12-15T10:15:26;14.60;;;11.30;;
357;SDS011;167;47.558;7.602;2022-12-15T10:20:20;13.87;;;12.00;;
357;SDS011;167;47.558;7.602;2022-12-15T10:22:47;13.63;;;12.07;;
357;SDS011;167;47.558;7.602;2022-12-15T10:25:23;15.13;;;13.07;;
357;SDS011;167;47.558;7.602;2022-12-15T10:30:16;15.83;;;13.23;;
357;SDS011;167;47.558;7.602;2022-12-15T10:35:15;16.53;;;14.10;;
357;SDS011;167;47.558;7.602;2022-12-15T10:37:41;15.43;;;13.33;;
357;SDS011;167;47.558;7.602;2022-12-15T10:40:07;15.80;;;13.23;;
357;SDS011;167;47.558;7.602;2022-12-15T10:42:44;14.33;;;12.80;;
357;SDS011;167;47.558;7.602;2022-12-15T10:45:28;14.87;;;11.57;;
357;SDS011;167;47.558;7.602;2022-12-15T10:47:56;17.93;;;13.70;;
357;SDS011;167;47.558;7.602;2022-12-15T10:50:24;16.50;;;13.33;;
357;SDS011;167;47.558;7.602;2022-12-15T10:52:51;17.20;;;14.37;;
357;SDS011;167;47.558;7.602;2022-12-15T10:58:02;16.50;;;14.67;;
357;SDS011;167;47.558;7.602;2022-12-15T11:00:30;14.67;;;12.97;;
357;SDS011;167;47.558;7.602;2022-12-15T11:02:57;14.87;;;12.30;;
357;SDS011;167;47.558;7.602;2022-12-15T11:05:24;16.60;;;14.77;;
357;SDS011;167;47.558;7.602;2022-12-15T11:12:42;15.73;;;12.00;;
357;SDS011;167;47.558;7.602;2022-12-15T11:17:46;14.27;;;12.90;;
357;SDS011;167;47.558;7.602;2022-12-15T11:20:24;16.60;;;13.53;;
357;SDS011;167;47.558;7.602;2022-12-15T11:22:54;20.73;;;13.53;;
357;SDS011;167;47.558;7.602;2022-12-15T11:25:35;16.63;;;12.53;;
357;SDS011;167;47.558;7.602;2022-12-15T11:28:04;16.60;;;14.60;;
357;SDS011;167;47.558;7.602;2022-12-15T11:30:32;17.53;;;13.77;;
357;SDS011;167;47.558;7.602;2022-12-15T11:32:59;18.03;;;13.33;;
357;SDS011;167;47.558;7.602;2022-12-15T11:35:30;15.70;;;14.07;;
357;SDS011;167;47.558;7.602;2022-12-15T11:38:01;21.07;;;16.00;;
357;SDS011;167;47.558;7.602;2022-12-15T11:40:32;15.03;;;13.30;;
357;SDS011;167;47.558;7.602;2022-12-15T11:48:17;15.93;;;14.23;;
357;SDS011;167;47.558;7.602;2022-12-15T11:50:58;17.07;;;14.03;;
357;SDS011;167;47.558;7.602;2022-12-15T11:58:57;18.63;;;15.87;;
357;SDS011;167;47.558;7.602;2022-12-15T12:11:47;20.93;;;16.70;;
357;SDS011;167;47.558;7.602;2022-12-15T12:14:31;22.23;;;17.53;;
357;SDS011;167;47.558;7.602;2022-12-15T12:17:06;22.63;;;16.47;;
357;SDS011;167;47.558;7.602;2022-12-15T12:19:47;22.87;;;16.83;;
357;SDS011;167;47.558;7.602;2022-12-15T12:22:31;21.43;;;16.73;;
357;SDS011;167;47.558;7.602;2022-12-15T12:25:03;22.83;;;18.23;;
357;SDS011;167;47.558;7.602;2022-12-15T12:30:03;24.10;;;17.40;;
357;SDS011;167;47.558;7.602;2022-12-15T12:32:42;24.30;;;18.87;;
357;SDS011;167;47.558;7.602;2022-12-15T12:37:47;20.53;;;17.53;;
357;SDS011;167;47.558;7.602;2022-12-15T12:43:00;23.87;;;16.90;;
357;SDS011;167;47.558;7.602;2022-12-15T12:45:37;22.20;;;17.27;;
357;SDS011;167;47.558;7.602;2022-12-15T12:48:06;21.87;;;16.40;;
357;SDS011;167;47.558;7.602;2022-12-15T12:50:33;18.23;;;16.10;;
357;SDS011;167;47.558;7.602;2022-12-15T12:53:00;19.00;;;15.53;;
357;SDS011;167;47.558;7.602;2022-12-15T12:55:40;19.43;;;17.30;;
357;SDS011;167;47.558;7.602;2022-12-15T13:01:02;21.20;;;17.30;;
357;SDS011;167;47.558;7.602;2022-12-15T13:03:28;22.07;;;19.33;;
357;SDS011;167;47.558;7.602;2022-12-15T13:05:54;22.90;;;16.67;;
357;SDS011;167;47.558;7.602;2022-12-15T13:08:32;23.40;;;17.80;;
357;SDS011;167;47.558;7.602;2022-12-15T13:13:54;24.73;;;17.70;;
357;SDS011;167;47.558;7.602;2022-12-15T13:16:23;20.60;;;16.90;;
357;SDS011;167;47.558;7.602;2022-12-15T13:19:00;26.53;;;19.10;;
357;SDS011;167;47.558;7.602;2022-12-15T13:26:50;26.30;;;18.73;;
357;SDS011;167;47.558;7.602;2022-12-15T13:29:16;23.17;;;18.57;;
357;SDS011;167;47.558;7.602;2022-12-15T13:31:46;24.00;;;17.67;;
357;SDS011;167;47.558;7.602;2022-12-15T13:34:14;29.27;;;19.97;;
357;SDS011;167;47.558;7.602;2022-12-15T13:36:42;23.93;;;18.93;;
357;SDS011;167;47.558;7.602;2022-12-15T13:41:37;28.20;;;20.60;;
357;SDS011;167;47.558;7.602;2022-12-15T13:44:19;25.60;;;18.97;;
357;SDS011;167;47.558;7.602;2022-12-15T13:46:46;25.33;;;19.40;;
357;SDS011;167;47.558;7.602;2022-12-15T13:49:15;25.83;;;18.93;;
357;SDS011;167;47.558;7.602;2022-12-15T13:51:45;28.87;;;20.83;;
357;SDS011;167;47.558;7.602;2022-12-15T13:56:48;25.70;;;19.20;;
357;SDS011;167;47.558;7.602;2022-12-15T14:01:48;30.10;;;21.60;;
357;SDS011;167;47.558;7.602;2022-12-15T14:04:15;28.30;;;23.03;;
357;SDS011;167;47.558;7.602;2022-12-15T14:06:56;30.50;;;19.03;;
357;SDS011;167;47.558;7.602;2022-12-15T14:09:29;26.17;;;20.53;;
357;SDS011;167;47.558;7.602;2022-12-15T14:11:56;25.30;;;18.80;;
357;SDS011;167;47.558;7.602;2022-12-15T14:14:23;27.40;;;19.73;;
357;SDS011;167;47.558;7.602;2022-12-15T14:16:50;26.03;;;19.27;;
357;SDS011;167;47.558;7.602;2022-12-15T14:19:17;27.03;;;19.03;;
357;SDS011;167;47.558;7.602;2022-12-15T14:21:47;27.77;;;18.97;;
357;SDS011;167;47.558;7.602;2022-12-15T14:24:46;26.10;;;19.83;;
357;SDS011;167;47.558;7.602;2022-12-15T14:27:05;21.13;;;17.60;;
357;SDS011;167;47.558;7.602;2022-12-15T14:29:31;23.37;;;19.17;;
357;SDS011;167;47.558;7.602;2022-12-15T14:31:57;26.03;;;18.53;;
357;SDS011;167;47.558;7.602;2022-12-15T14:34:36;24.27;;;18.20;;
357;SDS011;167;47.558;7.602;2022-12-15T14:37:06;26.90;;;19.57;;
357;SDS011;167;47.558;7.602;2022-12-15T14:39:35;29.93;;;20.67;;
357;SDS011;167;47.558;7.602;2022-12-15T14:42:02;29.80;;;21.50;;
357;SDS011;167;47.558;7.602;2022-12-15T14:44:33;29.10;;;20.13;;
357;SDS011;167;47.558;7.602;2022-12-15T14:47:01;24.50;;;18.63;;
357;SDS011;167;47.558;7.602;2022-12-15T14:49:28;28.93;;;19.83;;
357;SDS011;167;47.558;7.602;2022-12-15T14:51:58;27.50;;;20.00;;
357;SDS011;167;47.558;7.602;2022-12-15T14:59:38;27.50;;;19.73;;
357;SDS011;167;47.558;7.602;2022-12-15T15:04:33;24.13;;;17.97;;
357;SDS011;167;47.558;7.602;2022-12-15T15:07:00;22.70;;;17.23;;
357;SDS011;167;47.558;7.602;2022-12-15T15:09:31;23.57;;;18.77;;
357;SDS011;167;47.558;7.602;2022-12-15T15:12:07;22.57;;;17.67;;
357;SDS011;167;47.558;7.602;2022-12-15T15:14:37;20.23;;;16.70;;
357;SDS011;167;47.558;7.602;2022-12-15T15:17:06;21.43;;;17.47;;
357;SDS011;167;47.558;7.602;2022-12-15T15:19:33;24.83;;;18.50;;
357;SDS011;167;47.558;7.602;2022-12-15T15:22:01;25.50;;;18.53;;
357;SDS011;167;47.558;7.602;2022-12-15T15:24:34;25.87;;;19.33;;
357;SDS011;167;47.558;7.602;2022-12-15T15:29:48;21.87;;;17.00;;
357;SDS011;167;47.558;7.602;2022-12-15T15:32:15;27.23;;;17.60;;
357;SDS011;167;47.558;7.602;2022-12-15T15:34:41;21.37;;;17.40;;
357;SDS011;167;47.558;7.602;2022-12-15T15:37:16;25.70;;;17.60;;
357;SDS011;167;47.558;7.602;2022-12-15T15:39:42;21.17;;;16.37;;
357;SDS011;167;47.558;7.602;2022-12-15T15:42:11;24.90;;;17.20;;
357;SDS011;167;47.558;7.602;2022-12-15T15:44:37;26.07;;;17.90;;
357;SDS011;167;47.558;7.602;2022-12-15T15:47:04;25.50;;;18.90;;
357;SDS011;167;47.558;7.602;2022-12-15T15:49:30;24.27;;;17.73;;
357;SDS011;167;47.558;7.602;2022-12-15T15:51:56;26.00;;;18.83;;
357;SDS011;167;47.558;7.602;2022-12-15T15:54:23;26.50;;;18.80;;
357;SDS011;167;47.558;7.602;2022-12-15T15:56:52;23.83;;;16.67;;
357;SDS011;167;47.558;7.602;2022-12-15T15:59:19;21.30;;;16.77;;
357;SDS011;167;47.558;7.602;2022-12-15T16:01:46;23.70;;;17.40;;
357;SDS011;167;47.558;7.602;2022-12-15T16:04:13;26.10;;;16.90;;
357;SDS011;167;47.558;7.602;2022-12-15T16:06:39;24.27;;;18.37;;
357;SDS011;167;47.558;7.602;2022-12-15T16:09:05;22.53;;;17.53;;
357;SDS011;167;47.558;7.602;2022-12-15T16:11:31;24.00;;;18.10;;
357;SDS011;167;47.558;7.602;2022-12-15T16:13:59;24.13;;;18.67;;
357;SDS011;167;47.558;7.602;2022-12-15T16:16:34;25.47;;;19.27;;
357;SDS011;167;47.558;7.602;2022-12-15T16:19:00;24.93;;;18.73;;
357;SDS011;167;47.558;7.602;2022-12-15T16:21:27;27.93;;;19.20;;
357;SDS011;167;47.558;7.602;2022-12-15T16:23:53;24.37;;;18.93;;
357;SDS011;167;47.558;7.602;2022-12-15T16:26:29;25.13;;;17.63;;
357;SDS011;167;47.558;7.602;2022-12-15T16:28:56;25.20;;;19.90;;
357;SDS011;167;47.558;7.602;2022-12-15T16:31:29;27.00;;;20.80;;
357;SDS011;167;47.558;7.602;2022-12-15T16:33:55;33.27;;;20.83;;
357;SDS011;167;47.558;7.602;2022-12-15T16:36:21;29.77;;;20.53;;
357;SDS011;167;47.558;7.602;2022-12-15T16:38:47;28.27;;;20.53;;
357;SDS011;167;47.558;7.602;2022-12-15T16:41:14;28.13;;;19.80;;
357;SDS011;167;47.558;7.602;2022-12-15T16:43:41;27.40;;;18.87;;
357;SDS011;167;47.558;7.602;2022-12-15T16:46:10;25.57;;;18.13;;
357;SDS011;167;47.558;7.602;2022-12-15T16:48:37;29.20;;;20.27;;
357;SDS011;167;47.558;7.602;2022-12-15T16:51:05;28.00;;;18.53;;
357;SDS011;167;47.558;7.602;2022-12-15T16:53:32;25.77;;;19.67;;
357;SDS011;167;47.558;7.602;2022-12-15T16:56:00;27.40;;;18.70;;
357;SDS011;167;47.558;7.602;2022-12-15T16:58:27;25.10;;;18.80;;
357;SDS011;167;47.558;7.602;2022-12-15T17:00:53;28.97;;;19.50;;
357;SDS011;167;47.558;7.602;2022-12-15T17:03:32;28.70;;;20.73;;
357;SDS011;167;47.558;7.602;2022-12-15T17:06:03;33.20;;;21.33;;
357;SDS011;167;47.558;7.602;2022-12-15T17:08:34;30.57;;;21.53;;
357;SDS011;167;47.558;7.602;2022-12-15T17:11:02;29.80;;;19.90;;
357;SDS011;167;47.558;7.602;2022-12-15T17:13:30;35.33;;;22.13;;
357;SDS011;167;47.558;7.602;2022-12-15T17:15:57;38.80;;;23.77;;
357;SDS011;167;47.558;7.602;2022-12-15T17:18:24;35.47;;;21.77;;
357;SDS011;167;47.558;7.602;2022-12-15T17:20:50;37.73;;;24.23;;
357;SDS011;167;47.558;7.602;2022-12-15T17:23:20;35.03;;;22.70;;
357;SDS011;167;47.558;7.602;2022-12-15T17:25:48;32.17;;;21.80;;
357;SDS011;167;47.558;7.602;2022-12-15T17:28:16;32.03;;;21.90;;
357;SDS011;167;47.558;7.602;2022-12-15T17:30:43;35.57;;;22.80;;
357;SDS011;167;47.558;7.602;2022-12-15T17:35:42;37.17;;;24.90;;
357;SDS011;167;47.558;7.602;2022-12-15T17:38:11;38.70;;;26.83;;
357;SDS011;167;47.558;7.602;2022-12-15T17:40:39;32.17;;;20.30;;
357;SDS011;167;47.558;7.602;2022-12-15T17:43:09;34.73;;;22.70;;
357;SDS011;167;47.558;7.602;2022-12-15T17:45:36;32.60;;;24.23;;
357;SDS011;167;47.558;7.602;2022-12-15T17:48:02;41.63;;;25.70;;
357;SDS011;167;47.558;7.602;2022-12-15T17:50:28;43.80;;;25.33;;
357;SDS011;167;47.558;7.602;2022-12-15T17:52:56;40.43;;;24.30;;